createdAt,value
2023-03-27T00:00:38.492Z,20.9583
2023-03-27T00:01:40.105Z,20.9611
2023-03-27T00:02:41.958Z,20.9665
2023-03-27T00:03:43.525Z,20.9627
2023-03-27T00:04:45.062Z,20.9568
2023-03-27T00:05:46.733Z,20.9565
2023-03-27T00:06:48.357Z,20.9656
2023-03-27T00:07:50.016Z,20.9709
2023-03-27T00:08:51.657Z,20.9671
2023-03-27T00:09:53.327Z,20.9660
2023-03-27T00:10:55.178Z,20.9664
2023-03-27T00:11:56.617Z,20.9664
2023-03-27T00:12:58.255Z,20.9718
2023-03-27T00:13:59.926Z,20.9769
2023-03-27T00:15:01.537Z,20.9750
2023-03-27T00:16:03.254Z,20.9725
2023-03-27T00:17:04.883Z,20.9752
2023-03-27T00:18:06.552Z,20.9752
2023-03-27T00:19:08.150Z,20.9766
2023-03-27T00:20:09.833Z,20.9730
2023-03-27T00:21:11.513Z,20.9767
2023-03-27T00:22:13.129Z,20.9802
2023-03-27T00:23:14.767Z,20.9767
2023-03-27T00:24:16.435Z,20.9752
2023-03-27T00:25:18.063Z,20.9825
2023-03-27T00:26:19.758Z,20.9861
2023-03-27T00:27:21.371Z,20.9857
2023-03-27T00:28:23.030Z,20.9896
2023-03-27T00:29:24.672Z,20.9884
2023-03-27T00:30:26.325Z,20.9823
2023-03-27T00:31:28.079Z,20.9797
2023-03-27T00:32:29.653Z,20.9784
2023-03-27T00:33:31.300Z,20.9782
2023-03-27T00:34:32.924Z,20.9816
2023-03-27T00:35:34.672Z,20.9852
2023-03-27T00:36:36.248Z,20.9866
2023-03-27T00:37:37.897Z,20.9827
2023-03-27T00:38:39.740Z,20.9804
2023-03-27T00:39:41.222Z,20.9807
2023-03-27T00:40:42.855Z,20.9866
2023-03-27T00:41:44.531Z,20.9888
2023-03-27T00:42:46.152Z,20.9870
2023-03-27T00:43:47.816Z,20.9824
2023-03-27T00:44:49.442Z,20.9785
2023-03-27T00:45:51.126Z,20.9755
2023-03-27T00:46:52.803Z,20.9732
2023-03-27T00:47:54.428Z,20.9734
2023-03-27T00:48:56.047Z,20.9840
2023-03-27T00:49:57.728Z,20.9908
2023-03-27T00:50:59.356Z,20.9877
2023-03-27T00:52:01.058Z,20.9808
2023-03-27T00:53:02.657Z,20.9743
2023-03-27T00:54:04.329Z,20.9763
2023-03-27T00:55:05.985Z,20.9777
2023-03-27T00:56:07.650Z,20.9790
2023-03-27T00:57:09.333Z,20.9767
2023-03-27T00:58:10.946Z,20.9789
2023-03-27T00:59:12.606Z,20.9743
2023-03-27T01:00:14.282Z,20.9690
2023-03-27T01:01:15.904Z,20.9697
2023-03-27T01:02:17.596Z,20.9725
2023-03-27T01:03:19.275Z,20.9740
2023-03-27T01:04:20.849Z,20.9710
2023-03-27T01:05:22.487Z,20.9684
2023-03-27T01:06:24.149Z,20.9656
2023-03-27T01:07:25.788Z,20.9677
2023-03-27T01:08:27.451Z,20.9719
2023-03-27T01:09:29.084Z,20.9696
2023-03-27T01:10:30.753Z,20.9670
2023-03-27T01:11:32.386Z,20.9601
2023-03-27T01:12:34.069Z,20.9578
2023-03-27T01:13:35.693Z,20.9604
2023-03-27T01:14:37.362Z,20.9586
2023-03-27T01:15:39.013Z,20.9546
2023-03-27T01:16:40.663Z,20.9548
2023-03-27T01:17:42.358Z,20.9545
2023-03-27T01:18:43.946Z,20.9550
2023-03-27T01:19:45.594Z,20.9598
2023-03-27T01:20:47.345Z,20.9634
2023-03-27T01:21:48.904Z,20.9625
2023-03-27T01:22:50.599Z,20.9625
2023-03-27T01:23:59.354Z,20.9612
2023-03-27T01:24:53.889Z,20.9557
2023-03-27T01:25:55.500Z,20.9576
2023-03-27T01:26:57.168Z,20.9501
2023-03-27T01:27:58.832Z,20.9457
2023-03-27T01:29:00.477Z,20.9511
2023-03-27T01:30:02.109Z,20.9512
2023-03-27T01:31:03.798Z,20.9483
2023-03-27T01:32:05.414Z,20.9545
2023-03-27T01:33:07.174Z,20.9561
2023-03-27T01:34:08.718Z,20.9510
2023-03-27T01:35:10.398Z,20.9459
2023-03-27T01:36:12.042Z,20.9421
2023-03-27T01:37:13.706Z,20.9417
2023-03-27T01:38:15.355Z,20.9439
2023-03-27T01:39:17.013Z,20.9419
2023-03-27T01:40:18.639Z,20.9397
2023-03-27T01:41:20.316Z,20.9408
2023-03-27T01:42:21.948Z,20.9411
2023-03-27T01:43:23.647Z,20.9416
2023-03-27T01:44:25.247Z,20.9389
2023-03-27T01:45:26.919Z,20.9328
2023-03-27T01:46:28.587Z,20.9351
2023-03-27T01:47:30.237Z,20.9309
2023-03-27T01:48:31.929Z,20.9270
2023-03-27T01:49:33.531Z,20.9343
2023-03-27T01:50:35.152Z,20.9390
2023-03-27T01:51:36.839Z,20.9347
2023-03-27T01:52:38.488Z,20.9243
2023-03-27T01:53:40.294Z,20.9174
2023-03-27T01:54:41.782Z,20.9233
2023-03-27T01:55:43.441Z,20.9282
2023-03-27T01:56:45.091Z,20.9304
2023-03-27T01:57:48.961Z,20.9234
2023-03-27T01:58:48.405Z,20.9164
2023-03-27T01:59:50.061Z,20.9115
2023-03-27T02:01:04.110Z,20.9103
2023-03-27T02:01:53.357Z,20.9166
2023-03-27T02:02:55.009Z,20.9177
2023-03-27T02:03:56.701Z,20.9120
2023-03-27T02:04:58.322Z,20.9076
2023-03-27T02:05:59.962Z,20.9031
2023-03-27T02:07:01.597Z,20.8996
2023-03-27T02:08:03.282Z,20.8912
2023-03-27T02:09:04.911Z,20.8956
2023-03-27T02:10:06.581Z,20.8992
2023-03-27T02:11:08.284Z,20.9001
2023-03-27T02:12:09.946Z,20.8976
2023-03-27T02:13:11.584Z,20.8915
2023-03-27T02:14:13.278Z,20.8897
2023-03-27T02:15:23.659Z,20.8923
2023-03-27T02:16:16.641Z,20.8950
2023-03-27T02:17:18.201Z,20.8978
2023-03-27T02:18:19.881Z,20.8969
2023-03-27T02:19:21.537Z,20.8889
2023-03-27T02:20:23.186Z,20.8822
2023-03-27T02:21:24.846Z,20.8849
2023-03-27T02:22:38.137Z,20.8785
2023-03-27T02:23:28.132Z,20.8672
2023-03-27T02:24:29.867Z,20.8716
2023-03-27T02:25:31.457Z,20.8696
2023-03-27T02:26:33.125Z,20.8532
2023-03-27T02:27:34.743Z,20.8467
2023-03-27T02:28:36.415Z,20.8484
2023-03-27T02:29:38.080Z,20.8455
2023-03-27T02:30:39.735Z,20.8384
2023-03-27T02:31:41.430Z,20.8465
2023-03-27T02:32:43.163Z,20.8490
2023-03-27T02:33:44.681Z,20.8523
2023-03-27T02:34:46.338Z,20.8456
2023-03-27T02:35:48.022Z,20.8418
2023-03-27T02:36:49.646Z,20.8274
2023-03-27T02:37:51.314Z,20.8197
2023-03-27T02:38:52.950Z,20.8226
2023-03-27T02:39:54.638Z,20.8261
2023-03-27T02:40:56.396Z,20.8297
2023-03-27T02:41:57.911Z,20.8349
2023-03-27T02:42:59.577Z,20.8406
2023-03-27T02:44:01.233Z,20.8414
2023-03-27T02:45:02.891Z,20.8401
2023-03-27T02:46:04.625Z,20.8279
2023-03-27T02:47:06.181Z,20.8253
2023-03-27T02:48:07.900Z,20.8209
2023-03-27T02:49:09.484Z,20.8055
2023-03-27T02:50:11.227Z,20.8003
2023-03-27T02:51:12.803Z,20.7942
2023-03-27T02:52:14.464Z,20.7973
2023-03-27T02:53:16.104Z,20.8052
2023-03-27T02:54:17.766Z,20.8072
2023-03-27T02:55:19.426Z,20.8042
2023-03-27T02:56:21.097Z,20.7875
2023-03-27T02:57:24.967Z,20.7791
2023-03-27T02:58:24.391Z,20.7856
2023-03-27T02:59:26.016Z,20.7887
2023-03-27T03:00:27.712Z,20.7847
2023-03-27T03:01:29.365Z,20.7800
2023-03-27T03:02:31.065Z,20.7787
2023-03-27T03:03:32.646Z,20.7744
2023-03-27T03:04:34.307Z,20.7697
2023-03-27T03:05:35.961Z,20.7671
2023-03-27T03:06:37.608Z,20.7630
2023-03-27T03:07:39.248Z,20.7724
2023-03-27T03:08:40.919Z,20.7748
2023-03-27T03:09:42.555Z,20.7749
2023-03-27T03:10:44.241Z,20.7561
2023-03-27T03:11:45.849Z,20.7648
2023-03-27T03:12:47.515Z,20.7791
2023-03-27T03:13:49.147Z,20.7732
2023-03-27T03:14:50.831Z,20.7630
2023-03-27T03:15:52.507Z,20.7549
2023-03-27T03:16:54.177Z,20.7542
2023-03-27T03:17:55.780Z,20.7539
2023-03-27T03:18:57.451Z,20.7418
2023-03-27T03:19:59.069Z,20.7366
2023-03-27T03:21:00.782Z,20.7386
2023-03-27T03:22:02.386Z,20.7366
2023-03-27T03:23:04.056Z,20.7404
2023-03-27T03:24:05.696Z,20.7416
2023-03-27T03:25:07.370Z,20.7306
2023-03-27T03:26:09.022Z,20.7363
2023-03-27T03:27:10.693Z,20.7267
2023-03-27T03:28:12.303Z,20.7229
2023-03-27T03:29:13.972Z,20.7197
2023-03-27T03:30:16.985Z,20.7202
2023-03-27T03:31:17.362Z,20.7230
2023-03-27T03:32:18.916Z,20.7187
2023-03-27T03:33:20.582Z,20.7224
2023-03-27T03:34:22.203Z,20.7249
2023-03-27T03:35:23.898Z,20.7113
2023-03-27T03:36:25.526Z,20.7014
2023-03-27T03:37:27.178Z,20.7042
2023-03-27T03:38:28.815Z,20.7029
2023-03-27T03:39:30.490Z,20.7002
2023-03-27T03:40:32.112Z,20.6956
2023-03-27T03:41:33.804Z,20.6946
2023-03-27T03:42:35.422Z,20.6887
2023-03-27T03:43:37.086Z,20.6988
2023-03-27T03:44:38.741Z,20.7021
2023-03-27T03:45:40.395Z,20.6985
2023-03-27T03:46:42.041Z,20.7029
2023-03-27T03:47:43.725Z,20.7073
2023-03-27T03:48:45.317Z,20.7034
2023-03-27T03:49:46.993Z,20.7053
2023-03-27T03:50:48.623Z,20.6963
2023-03-27T03:52:03.775Z,20.6851
2023-03-27T03:52:51.921Z,20.6761
2023-03-27T03:53:53.586Z,20.6690
2023-03-27T03:54:55.239Z,20.6547
2023-03-27T03:55:56.883Z,20.6417
2023-03-27T03:56:58.557Z,20.6420
2023-03-27T03:58:00.192Z,20.6588
2023-03-27T03:59:01.846Z,20.6655
2023-03-27T04:00:03.504Z,20.6734
2023-03-27T04:01:05.126Z,20.6675
2023-03-27T04:02:06.837Z,20.6585
2023-03-27T04:03:08.640Z,20.6536
2023-03-27T04:04:10.104Z,20.6494
2023-03-27T04:05:11.745Z,20.6594
2023-03-27T04:06:13.419Z,20.6496
2023-03-27T04:07:15.060Z,20.6365
2023-03-27T04:08:16.715Z,20.6271
2023-03-27T04:09:18.341Z,20.6249
2023-03-27T04:10:20.048Z,20.6323
2023-03-27T04:11:21.660Z,20.6287
2023-03-27T04:12:23.353Z,20.6364
2023-03-27T04:13:24.987Z,20.6430
2023-03-27T04:14:26.622Z,20.6476
2023-03-27T04:15:28.266Z,20.6470
2023-03-27T04:16:29.994Z,20.6427
2023-03-27T04:17:31.622Z,20.6465
2023-03-27T04:18:33.367Z,20.6416
2023-03-27T04:19:34.888Z,20.6312
2023-03-27T04:20:36.537Z,20.6245
2023-03-27T04:21:38.158Z,20.6321
2023-03-27T04:22:39.847Z,20.6316
2023-03-27T04:23:41.463Z,20.6656
2023-03-27T04:24:43.140Z,20.7243
2023-03-27T04:25:44.810Z,20.7589
2023-03-27T04:26:46.441Z,20.7538
2023-03-27T04:27:48.088Z,20.7461
2023-03-27T04:28:49.730Z,20.7832
2023-03-27T04:29:51.369Z,20.8131
2023-03-27T04:30:53.038Z,20.8112
2023-03-27T04:31:54.681Z,20.8379
2023-03-27T04:32:56.389Z,20.8527
2023-03-27T04:33:57.977Z,20.8536
2023-03-27T04:34:59.651Z,20.8452
2023-03-27T04:36:06.360Z,20.8690
2023-03-27T04:37:02.958Z,20.7951
2023-03-27T04:38:04.616Z,20.6281
2023-03-27T04:39:06.260Z,20.5241
2023-03-27T04:40:07.892Z,20.5535
2023-03-27T04:41:09.545Z,20.5826
2023-03-27T04:42:11.178Z,20.5820
2023-03-27T04:43:12.887Z,20.6162
2023-03-27T04:44:14.493Z,20.6415
2023-03-27T04:45:16.190Z,20.6594
2023-03-27T04:46:17.825Z,20.6883
2023-03-27T04:47:19.476Z,20.7048
2023-03-27T04:48:21.140Z,20.7654
2023-03-27T04:49:22.780Z,20.7909
2023-03-27T04:50:24.403Z,20.7888
2023-03-27T04:51:26.089Z,20.7741
2023-03-27T04:52:27.725Z,20.7440
2023-03-27T04:53:29.556Z,20.6897
2023-03-27T04:54:31.055Z,20.6269
2023-03-27T04:55:32.680Z,20.6518
2023-03-27T04:56:34.363Z,20.6856
2023-03-27T04:57:35.987Z,20.6785
2023-03-27T04:58:37.945Z,20.6199
2023-03-27T04:59:39.301Z,20.5811
2023-03-27T05:00:40.987Z,20.6177
2023-03-27T05:01:42.606Z,20.6037
2023-03-27T05:02:44.270Z,20.4945
2023-03-27T05:03:45.976Z,20.4885
2023-03-27T05:04:47.551Z,20.5134
2023-03-27T05:05:49.190Z,20.5005
2023-03-27T05:06:50.872Z,20.5054
2023-03-27T05:07:52.580Z,20.5316
2023-03-27T05:08:54.177Z,20.5445
2023-03-27T05:09:55.777Z,20.5522
2023-03-27T05:10:57.712Z,20.5734
2023-03-27T05:11:59.098Z,20.5900
2023-03-27T05:13:00.769Z,20.5967
2023-03-27T05:14:02.426Z,20.6047
2023-03-27T05:15:04.089Z,20.6272
2023-03-27T05:16:05.720Z,20.6546
2023-03-27T05:17:07.374Z,20.6308
2023-03-27T05:18:09.322Z,20.6373
2023-03-27T05:19:10.767Z,20.6537
2023-03-27T05:20:12.319Z,20.6408
2023-03-27T05:21:13.974Z,20.6408
2023-03-27T05:22:15.626Z,20.6482
2023-03-27T05:23:17.288Z,20.6529
2023-03-27T05:24:18.931Z,20.6619
2023-03-27T05:25:20.586Z,20.6812
2023-03-27T05:26:22.215Z,20.6756
2023-03-27T05:27:23.923Z,20.6964
2023-03-27T05:28:25.525Z,20.7220
2023-03-27T05:29:27.232Z,20.7259
2023-03-27T05:30:28.927Z,20.7199
2023-03-27T05:31:30.573Z,20.7081
2023-03-27T05:32:32.170Z,20.6955
2023-03-27T05:33:33.785Z,20.6691
2023-03-27T05:34:35.496Z,20.6838
2023-03-27T05:35:37.125Z,20.7039
2023-03-27T05:36:38.773Z,20.7338
2023-03-27T05:37:40.405Z,20.7632
2023-03-27T05:38:42.064Z,20.7672
2023-03-27T05:39:43.732Z,20.7495
2023-03-27T05:40:45.374Z,20.7294
2023-03-27T05:41:47.005Z,20.7258
2023-03-27T05:42:48.674Z,20.7268
2023-03-27T05:43:51.241Z,20.7201
2023-03-27T05:44:51.996Z,20.7249
2023-03-27T05:45:53.626Z,20.7338
2023-03-27T05:46:55.291Z,20.7313
2023-03-27T05:47:56.991Z,20.7290
2023-03-27T05:48:58.592Z,20.7175
2023-03-27T05:50:00.249Z,20.7031
2023-03-27T05:51:01.903Z,20.7047
2023-03-27T05:52:03.510Z,20.6816
2023-03-27T05:53:05.200Z,20.6595
2023-03-27T05:54:06.809Z,20.6693
2023-03-27T05:55:08.523Z,20.6810
2023-03-27T05:56:10.116Z,20.6758
2023-03-27T05:57:11.914Z,20.6752
2023-03-27T05:58:13.462Z,20.6794
2023-03-27T05:59:15.077Z,20.6604
2023-03-27T06:00:16.762Z,20.6689
2023-03-27T06:01:18.388Z,20.6761
2023-03-27T06:02:21.517Z,20.7020
2023-03-27T06:03:21.876Z,20.7284
2023-03-27T06:04:23.358Z,20.7186
2023-03-27T06:05:25.023Z,20.7250
2023-03-27T06:06:26.637Z,20.7409
2023-03-27T06:07:28.305Z,20.7646
2023-03-27T06:08:29.933Z,20.7633
2023-03-27T06:09:31.583Z,20.7464
2023-03-27T06:10:33.250Z,20.7396
2023-03-27T06:11:34.889Z,20.7288
2023-03-27T06:12:36.526Z,20.7155
2023-03-27T06:13:38.260Z,20.7044
2023-03-27T06:14:39.906Z,20.6984
2023-03-27T06:15:41.635Z,20.6960
2023-03-27T06:16:43.201Z,20.6981
2023-03-27T06:17:44.894Z,20.6924
2023-03-27T06:18:46.498Z,20.6780
2023-03-27T06:19:48.184Z,20.6650
2023-03-27T06:20:49.815Z,20.6492
2023-03-27T06:21:51.460Z,20.6361
2023-03-27T06:22:53.104Z,20.6253
2023-03-27T06:23:54.763Z,20.6184
2023-03-27T06:24:56.389Z,20.6088
2023-03-27T06:25:58.378Z,20.5976
2023-03-27T06:26:59.691Z,20.5902
2023-03-27T06:28:01.364Z,20.5908
2023-03-27T06:29:08.142Z,20.5929
2023-03-27T06:30:04.676Z,20.5904
2023-03-27T06:31:06.355Z,20.5849
2023-03-27T06:32:07.981Z,20.5865
2023-03-27T06:33:09.621Z,20.5811
2023-03-27T06:34:11.284Z,20.5792
2023-03-27T06:35:12.896Z,20.5811
2023-03-27T06:36:14.625Z,20.5852
2023-03-27T06:37:16.181Z,20.5742
2023-03-27T06:38:17.862Z,20.5687
2023-03-27T06:39:19.479Z,20.5687
2023-03-27T06:40:21.139Z,20.5618
2023-03-27T06:41:22.802Z,20.5558
2023-03-27T06:42:24.445Z,20.5524
2023-03-27T06:43:26.075Z,20.5433
2023-03-27T06:44:27.738Z,20.5395
2023-03-27T06:45:29.393Z,20.5435
2023-03-27T06:46:42.688Z,20.5441
2023-03-27T06:47:36.382Z,20.5386
2023-03-27T06:48:34.366Z,20.5290
2023-03-27T06:49:35.975Z,20.5300
2023-03-27T06:50:37.629Z,20.5265
2023-03-27T06:51:39.281Z,20.5174
2023-03-27T06:52:40.928Z,20.5096
2023-03-27T06:53:42.558Z,20.5069
2023-03-27T06:54:44.216Z,20.5079
2023-03-27T06:55:45.868Z,20.5090
2023-03-27T06:56:47.610Z,20.5052
2023-03-27T06:57:49.166Z,20.5013
2023-03-27T06:58:50.836Z,20.4968
2023-03-27T06:59:52.488Z,20.4978
2023-03-27T07:00:54.129Z,20.4980
2023-03-27T07:01:55.830Z,20.4958
2023-03-27T07:02:57.420Z,20.4929
2023-03-27T07:03:59.065Z,20.4945
2023-03-27T07:05:04.649Z,20.4902
2023-03-27T07:06:02.556Z,20.4867
2023-03-27T07:07:04.049Z,20.4823
2023-03-27T07:08:18.997Z,20.4737
2023-03-27T07:09:07.318Z,20.4779
2023-03-27T07:10:08.962Z,20.4789
2023-03-27T07:11:12.266Z,20.4769
2023-03-27T07:12:12.278Z,20.4742
2023-03-27T07:13:13.919Z,20.4730
2023-03-27T07:14:15.589Z,20.4694
2023-03-27T07:15:17.295Z,20.4659
2023-03-27T07:16:18.892Z,20.4622
2023-03-27T07:17:20.532Z,20.4618
2023-03-27T07:18:22.216Z,20.4611
2023-03-27T07:19:23.822Z,20.4577
2023-03-27T07:20:25.473Z,20.4549
2023-03-27T07:21:27.137Z,20.4564
2023-03-27T07:22:28.799Z,20.4592
2023-03-27T07:23:30.435Z,20.4546
2023-03-27T07:24:32.060Z,20.4487
2023-03-27T07:25:33.744Z,20.4487
2023-03-27T07:26:35.354Z,20.4454
2023-03-27T07:27:37.063Z,20.4448
2023-03-27T07:28:38.729Z,20.4444
2023-03-27T07:29:40.337Z,20.4430
2023-03-27T07:30:41.983Z,20.4424
2023-03-27T07:31:57.525Z,20.4384
2023-03-27T07:32:45.408Z,20.4414
2023-03-27T07:33:47.068Z,20.4411
2023-03-27T07:34:48.579Z,20.4373
2023-03-27T07:35:50.256Z,20.4309
2023-03-27T07:36:51.894Z,20.4323
2023-03-27T07:37:53.579Z,20.4293
2023-03-27T07:38:55.184Z,20.4261
2023-03-27T07:39:56.847Z,20.4272
2023-03-27T07:40:58.504Z,20.4307
2023-03-27T07:42:00.164Z,20.4297
2023-03-27T07:43:01.834Z,20.4314
2023-03-27T07:44:03.464Z,20.4276
2023-03-27T07:45:05.090Z,20.4198
2023-03-27T07:46:06.803Z,20.4143
2023-03-27T07:47:08.397Z,20.4067
2023-03-27T07:48:10.087Z,20.4082
2023-03-27T07:49:11.685Z,20.4082
2023-03-27T07:50:13.380Z,20.4070
2023-03-27T07:51:14.982Z,20.4020
2023-03-27T07:52:16.738Z,20.4027
2023-03-27T07:53:32.806Z,20.4019
2023-03-27T07:54:19.945Z,20.4066
2023-03-27T07:55:21.582Z,20.4088
2023-03-27T07:56:23.276Z,20.4051
2023-03-27T07:57:25.041Z,20.4063
2023-03-27T07:58:26.857Z,20.4032
2023-03-27T07:59:28.197Z,20.3995
2023-03-27T08:00:29.980Z,20.3958
2023-03-27T08:01:31.480Z,20.3941
2023-03-27T08:02:33.188Z,20.3977
2023-03-27T08:03:34.922Z,20.3962
2023-03-27T08:04:36.584Z,20.3953
2023-03-27T08:05:38.080Z,20.3956
2023-03-27T08:06:39.751Z,20.3937
2023-03-27T08:07:41.389Z,20.3951
2023-03-27T08:08:43.092Z,20.3919
2023-03-27T08:09:44.697Z,20.3880
2023-03-27T08:10:46.361Z,20.3888
2023-03-27T08:11:48.010Z,20.3945
2023-03-27T08:12:49.668Z,20.3962
2023-03-27T08:13:51.330Z,20.3918
2023-03-27T08:14:52.968Z,20.3838
2023-03-27T08:15:54.750Z,20.3814
2023-03-27T08:17:08.648Z,20.3801
2023-03-27T08:17:57.937Z,20.3832
2023-03-27T08:18:59.640Z,20.3856
2023-03-27T08:20:01.226Z,20.3849
2023-03-27T08:21:02.957Z,20.3844
2023-03-27T08:22:04.501Z,20.3842
2023-03-27T08:23:06.191Z,20.3793
2023-03-27T08:24:07.833Z,20.3742
2023-03-27T08:25:09.502Z,20.3727
2023-03-27T08:26:11.101Z,20.3721
2023-03-27T08:27:12.798Z,20.3758
2023-03-27T08:28:14.433Z,20.3747
2023-03-27T08:29:16.138Z,20.3704
2023-03-27T08:30:17.794Z,20.3726
2023-03-27T08:31:19.487Z,20.3757
2023-03-27T08:32:21.035Z,20.3750
2023-03-27T08:33:22.739Z,20.3795
2023-03-27T08:34:24.397Z,20.3771
2023-03-27T08:35:26.026Z,20.3731
2023-03-27T08:36:27.632Z,20.3660
2023-03-27T08:37:29.265Z,20.3615
2023-03-27T08:38:30.964Z,20.3560
2023-03-27T08:39:32.630Z,20.3554
2023-03-27T08:40:34.219Z,20.3640
2023-03-27T08:41:35.882Z,20.3672
2023-03-27T08:42:37.556Z,20.3650
2023-03-27T08:43:39.142Z,20.3607
2023-03-27T08:44:40.873Z,20.3608
2023-03-27T08:45:42.470Z,20.3653
2023-03-27T08:46:44.136Z,20.3621
2023-03-27T08:48:48.556Z,20.3535
2023-03-27T08:48:48.556Z,20.3499
2023-03-27T08:49:50.144Z,20.3510
2023-03-27T08:50:51.817Z,20.3528
2023-03-27T08:51:53.406Z,20.3543
2023-03-27T08:52:55.059Z,20.3493
2023-03-27T08:53:56.719Z,20.3457
2023-03-27T08:54:58.502Z,20.3463
2023-03-27T08:56:00.003Z,20.3453
2023-03-27T08:57:01.759Z,20.3396
2023-03-27T08:58:03.334Z,20.3360
2023-03-27T08:59:04.992Z,20.3319
2023-03-27T09:00:06.650Z,20.3288
2023-03-27T09:01:08.301Z,20.3310
2023-03-27T09:02:09.989Z,20.3334
2023-03-27T09:03:11.721Z,20.3352
2023-03-27T09:04:13.218Z,20.3372
2023-03-27T09:05:14.931Z,20.3362
2023-03-27T09:06:16.567Z,20.3350
2023-03-27T09:07:18.188Z,20.3289
2023-03-27T09:08:19.804Z,20.3298
2023-03-27T09:09:21.461Z,20.3296
2023-03-27T09:10:23.199Z,20.3276
2023-03-27T09:11:24.804Z,20.3288
2023-03-27T09:12:26.430Z,20.3319
2023-03-27T09:13:28.027Z,20.3358
2023-03-27T09:14:29.686Z,20.3392
2023-03-27T09:15:31.384Z,20.3397
2023-03-27T09:16:33.122Z,20.3378
2023-03-27T09:17:34.683Z,20.3273
2023-03-27T09:18:36.316Z,20.3280
2023-03-27T09:19:37.947Z,20.3336
2023-03-27T09:20:39.662Z,20.3368
2023-03-27T09:21:41.229Z,20.3345
2023-03-27T09:22:42.904Z,20.3335
2023-03-27T09:23:44.523Z,20.3309
2023-03-27T09:24:46.236Z,20.3270
2023-03-27T09:25:47.926Z,20.3232
2023-03-27T09:27:01.072Z,20.3220
2023-03-27T09:27:51.132Z,20.3187
2023-03-27T09:28:52.806Z,20.3171
2023-03-27T09:30:05.960Z,20.3164
2023-03-27T09:30:56.226Z,20.3149
2023-03-27T09:31:57.744Z,20.3167
2023-03-27T09:32:59.448Z,20.3213
2023-03-27T09:34:01.001Z,20.3165
2023-03-27T09:35:02.752Z,20.3171
2023-03-27T09:36:04.460Z,20.3169
2023-03-27T09:37:06.056Z,20.3148
2023-03-27T09:38:07.640Z,20.3063
2023-03-27T09:39:09.314Z,20.3072
2023-03-27T09:40:10.954Z,20.3073
2023-03-27T09:41:12.634Z,20.3132
2023-03-27T09:42:14.238Z,20.3152
2023-03-27T09:43:15.920Z,20.3151
2023-03-27T09:44:17.596Z,20.3191
2023-03-27T09:45:19.301Z,20.3198
2023-03-27T09:46:20.933Z,20.3127
2023-03-27T09:47:22.520Z,20.3050
2023-03-27T09:48:24.185Z,20.3042
2023-03-27T09:49:25.814Z,20.3061
2023-03-27T09:50:27.945Z,20.3038
2023-03-27T09:51:29.269Z,20.3017
2023-03-27T09:52:30.711Z,20.3029
2023-03-27T09:53:32.434Z,20.3050
2023-03-27T09:54:34.058Z,20.3082
2023-03-27T09:55:35.717Z,20.3018
2023-03-27T09:56:37.392Z,20.2957
2023-03-27T09:57:39.077Z,20.2916
2023-03-27T09:58:40.678Z,20.2878
2023-03-27T09:59:42.307Z,20.2872
2023-03-27T10:00:44.031Z,20.2935
2023-03-27T10:01:45.632Z,20.2947
2023-03-27T10:02:47.297Z,20.2938
2023-03-27T10:03:49.108Z,20.2861
2023-03-27T10:04:50.548Z,20.2847
2023-03-27T10:05:52.216Z,20.2898
2023-03-27T10:06:53.852Z,20.2906
2023-03-27T10:07:55.522Z,20.2919
2023-03-27T10:08:57.165Z,20.2895
2023-03-27T10:09:58.836Z,20.2883
2023-03-27T10:11:00.485Z,20.2805
2023-03-27T10:12:02.190Z,20.2821
2023-03-27T10:13:03.767Z,20.2835
2023-03-27T10:14:05.454Z,20.2824
2023-03-27T10:15:07.112Z,20.2829
2023-03-27T10:16:08.837Z,20.2777
2023-03-27T10:17:10.450Z,20.2779
2023-03-27T10:18:12.199Z,20.2768
2023-03-27T10:19:13.855Z,20.2787
2023-03-27T10:20:15.491Z,20.2824
2023-03-27T10:21:17.100Z,20.2831
2023-03-27T10:22:18.766Z,20.2809
2023-03-27T10:23:20.359Z,20.2841
2023-03-27T10:24:22.005Z,20.2812
2023-03-27T10:25:23.678Z,20.2745
2023-03-27T10:26:25.343Z,20.2762
2023-03-27T10:27:26.976Z,20.2777
2023-03-27T10:28:28.609Z,20.2817
2023-03-27T10:29:30.262Z,20.2804
2023-03-27T10:30:31.912Z,20.2767
2023-03-27T10:31:33.588Z,20.2731
2023-03-27T10:32:35.268Z,20.2738
2023-03-27T10:33:36.885Z,20.2727
2023-03-27T10:34:38.517Z,20.2756
2023-03-27T10:35:40.179Z,20.2822
2023-03-27T10:36:41.842Z,20.2848
2023-03-27T10:37:49.773Z,20.2828
2023-03-27T10:38:45.132Z,20.2755
2023-03-27T10:39:46.756Z,20.2784
2023-03-27T10:40:48.426Z,20.2708
2023-03-27T10:41:50.067Z,20.2656
2023-03-27T10:42:51.782Z,20.2644
2023-03-27T10:43:53.360Z,20.2676
2023-03-27T10:44:55.030Z,20.2706
2023-03-27T10:45:56.764Z,20.2731
2023-03-27T10:46:58.347Z,20.2732
2023-03-27T10:48:00.038Z,20.2732
2023-03-27T10:49:01.635Z,20.2727
2023-03-27T10:50:03.267Z,20.2808
2023-03-27T10:51:04.945Z,20.2797
2023-03-27T10:52:06.560Z,20.2720
2023-03-27T10:53:08.336Z,20.2725
2023-03-27T10:54:09.902Z,20.2784
2023-03-27T10:55:11.537Z,20.2773
2023-03-27T10:56:13.176Z,20.2721
2023-03-27T10:57:14.868Z,20.2738
2023-03-27T10:58:16.481Z,20.2789
2023-03-27T10:59:21.509Z,20.2778
2023-03-27T11:00:19.763Z,20.2712
2023-03-27T11:01:21.505Z,20.2638
2023-03-27T11:02:23.115Z,20.2641
2023-03-27T11:03:24.807Z,20.2697
2023-03-27T11:04:26.378Z,20.2776
2023-03-27T11:05:28.092Z,20.2767
2023-03-27T11:06:29.698Z,20.2773
2023-03-27T11:07:31.369Z,20.2762
2023-03-27T11:08:33.062Z,20.2760
2023-03-27T11:09:34.708Z,20.2848
2023-03-27T11:10:36.320Z,20.2845
2023-03-27T11:11:38.031Z,20.2825
2023-03-27T11:12:39.608Z,20.2791
2023-03-27T11:13:41.279Z,20.2787
2023-03-27T11:14:42.917Z,20.2732
2023-03-27T11:15:44.608Z,20.2782
2023-03-27T11:16:46.242Z,20.2761
2023-03-27T11:17:47.905Z,20.2745
2023-03-27T11:18:49.573Z,20.2746
2023-03-27T11:19:51.176Z,20.2741
2023-03-27T11:20:52.789Z,20.2803
2023-03-27T11:21:54.485Z,20.2810
2023-03-27T11:22:56.138Z,20.2843
2023-03-27T11:23:57.926Z,20.2806
2023-03-27T11:24:59.429Z,20.2723
2023-03-27T11:26:01.075Z,20.2759
2023-03-27T11:27:02.754Z,20.2764
2023-03-27T11:28:04.444Z,20.2759
2023-03-27T11:29:06.059Z,20.2749
2023-03-27T11:30:07.705Z,20.2762
2023-03-27T11:31:12.112Z,20.2735
2023-03-27T11:32:10.995Z,20.2682
2023-03-27T11:33:12.608Z,20.2636
2023-03-27T11:34:14.345Z,20.2622
2023-03-27T11:35:15.923Z,20.2697
2023-03-27T11:36:17.619Z,20.2673
2023-03-27T11:37:19.217Z,20.2602
2023-03-27T11:38:20.911Z,20.2631
2023-03-27T11:39:22.626Z,20.2685
2023-03-27T11:40:24.232Z,20.2673
2023-03-27T11:41:25.847Z,20.2653
2023-03-27T11:42:27.604Z,20.2587
2023-03-27T11:43:29.135Z,20.2546
2023-03-27T11:44:30.847Z,20.2553
2023-03-27T11:45:32.452Z,20.2565
2023-03-27T11:46:34.168Z,20.2565
2023-03-27T11:47:35.759Z,20.2546
2023-03-27T11:48:37.394Z,20.2533
2023-03-27T11:49:39.141Z,20.2615
2023-03-27T11:50:40.750Z,20.2660
2023-03-27T11:51:42.403Z,20.2636
2023-03-27T11:52:43.997Z,20.2632
2023-03-27T11:53:45.684Z,20.2633
2023-03-27T11:54:47.379Z,20.2633
2023-03-27T11:55:49.008Z,20.2657
2023-03-27T11:56:50.643Z,20.2626
2023-03-27T11:57:52.278Z,20.2600
2023-03-27T11:58:53.917Z,20.2636
2023-03-27T11:59:55.616Z,20.2592
2023-03-27T12:00:57.393Z,20.2503
2023-03-27T12:01:58.936Z,20.2498
2023-03-27T12:03:00.574Z,20.2512
2023-03-27T12:04:02.320Z,20.2486
2023-03-27T12:05:03.866Z,20.2419
2023-03-27T12:06:05.556Z,20.2433
2023-03-27T12:07:09.836Z,20.2426
2023-03-27T12:08:08.790Z,20.2490
2023-03-27T12:09:10.428Z,20.2618
2023-03-27T12:10:12.140Z,20.2608
2023-03-27T12:11:13.716Z,20.2603
2023-03-27T12:12:15.391Z,20.2579
2023-03-27T12:13:17.021Z,20.2564
2023-03-27T12:14:19.140Z,20.2562
2023-03-27T12:15:20.421Z,20.2512
2023-03-27T12:16:22.092Z,20.2541
2023-03-27T12:17:23.725Z,20.2522
2023-03-27T12:18:35.277Z,20.2469
2023-03-27T12:19:29.680Z,20.2450
2023-03-27T12:20:28.745Z,20.2449
2023-03-27T12:21:30.330Z,20.2512
2023-03-27T12:22:31.921Z,20.2512
2023-03-27T12:23:33.522Z,20.2537
2023-03-27T12:24:35.196Z,20.2527
2023-03-27T12:25:36.931Z,20.2496